createdAt,value
2023-01-29T00:01:16.854Z,22.07
2023-01-29T00:03:45.228Z,21.13
2023-01-29T00:06:13.388Z,24.43
2023-01-29T00:08:41.377Z,27.77
2023-01-29T00:11:10.194Z,26.30
2023-01-29T00:13:38.216Z,24.60
2023-01-29T00:16:06.547Z,26.57
2023-01-29T00:18:39.407Z,24.03
2023-01-29T00:21:10.419Z,24.97
2023-01-29T00:24:53.645Z,24.45
2023-01-29T00:27:21.795Z,24.87
2023-01-29T00:30:09.611Z,26.73
2023-01-29T00:32:37.678Z,23.40
2023-01-29T00:35:08.542Z,26.70
2023-01-29T00:37:37.253Z,22.92
2023-01-29T00:40:06.324Z,24.67
2023-01-29T00:42:52.027Z,23.13
2023-01-29T00:45:20.120Z,25.60
2023-01-29T00:47:48.418Z,21.83
2023-01-29T00:50:18.500Z,26.53
2023-01-29T00:52:48.682Z,24.48
2023-01-29T00:55:17.242Z,27.55
2023-01-29T00:57:45.519Z,24.10
2023-01-29T01:00:16.610Z,24.33
2023-01-29T01:03:02.778Z,27.97
2023-01-29T01:05:32.315Z,26.90
2023-01-29T01:08:00.422Z,25.27
2023-01-29T01:10:29.895Z,22.17
2023-01-29T01:13:00.168Z,24.63
2023-01-29T01:15:31.247Z,22.92
2023-01-29T01:20:31.485Z,26.27
2023-01-29T01:23:00.895Z,26.23
2023-01-29T01:25:29.006Z,29.77
2023-01-29T01:30:28.017Z,24.63
2023-01-29T01:32:57.067Z,26.60
2023-01-29T01:35:25.425Z,27.00
2023-01-29T01:37:53.872Z,28.13
2023-01-29T01:40:24.524Z,33.43
2023-01-29T01:42:54.480Z,28.20
2023-01-29T01:45:26.807Z,23.90
2023-01-29T01:48:00.525Z,29.67
2023-01-29T01:50:35.630Z,29.00
2023-01-29T01:53:09.186Z,26.10
2023-01-29T01:55:43.465Z,27.37
2023-01-29T01:58:13.888Z,29.83
2023-01-29T02:00:42.014Z,28.33
2023-01-29T02:03:30.002Z,27.63
2023-01-29T02:06:18.401Z,30.00
2023-01-29T02:09:11.505Z,26.33
2023-01-29T02:11:41.679Z,35.70
2023-01-29T02:14:40.318Z,28.30
2023-01-29T02:17:12.154Z,28.17
2023-01-29T02:19:48.830Z,27.90
2023-01-29T02:22:35.485Z,30.53
2023-01-29T02:25:24.541Z,31.90
2023-01-29T02:28:32.269Z,31.70
2023-01-29T02:31:08.616Z,28.07
2023-01-29T02:33:47.068Z,28.53
2023-01-29T02:36:28.431Z,23.63
2023-01-29T02:39:02.916Z,28.90
2023-01-29T02:41:36.903Z,27.53
2023-01-29T02:44:13.459Z,26.67
2023-01-29T02:46:52.217Z,30.70
2023-01-29T02:49:25.956Z,28.80
2023-01-29T02:52:03.957Z,27.87
2023-01-29T02:54:40.689Z,31.03
2023-01-29T02:57:16.366Z,28.57
2023-01-29T02:59:50.354Z,30.40
2023-01-29T03:02:29.519Z,32.07
2023-01-29T03:05:03.021Z,31.40
2023-01-29T03:07:44.983Z,30.27
2023-01-29T03:10:25.123Z,27.63
2023-01-29T03:13:00.879Z,32.50
2023-01-29T03:15:39.044Z,31.20
2023-01-29T03:18:27.877Z,28.63
2023-01-29T03:21:47.468Z,28.43
2023-01-29T03:24:36.387Z,28.20
2023-01-29T03:27:27.373Z,31.63
2023-01-29T03:30:16.880Z,29.10
2023-01-29T03:32:53.201Z,27.80
2023-01-29T03:35:33.611Z,32.50
2023-01-29T03:38:02.381Z,28.23
2023-01-29T03:40:33.550Z,31.83
2023-01-29T03:43:10.723Z,30.20
2023-01-29T03:45:50.885Z,34.50
2023-01-29T03:48:29.202Z,34.80
2023-01-29T03:51:03.033Z,34.17
2023-01-29T03:53:44.092Z,27.47
2023-01-29T03:56:27.319Z,29.65
2023-01-29T03:59:01.809Z,30.90
2023-01-29T04:01:52.590Z,28.27
2023-01-29T04:04:26.097Z,28.47
2023-01-29T04:06:58.788Z,30.03
2023-01-29T04:09:32.010Z,27.73
2023-01-29T04:12:05.278Z,29.30
2023-01-29T04:14:34.321Z,26.77
2023-01-29T04:17:10.255Z,30.40
2023-01-29T04:19:49.094Z,29.40
2023-01-29T04:22:21.589Z,27.23
2023-01-29T04:24:50.939Z,27.87
2023-01-29T04:27:28.299Z,30.23
2023-01-29T04:30:17.899Z,24.27
2023-01-29T04:33:02.469Z,29.57
2023-01-29T04:35:38.155Z,29.93
2023-01-29T04:38:13.176Z,29.77
2023-01-29T04:40:52.468Z,28.10
2023-01-29T04:43:28.014Z,28.30
2023-01-29T04:46:11.560Z,27.43
2023-01-29T04:48:49.460Z,33.63
2023-01-29T04:51:25.751Z,25.57
2023-01-29T04:54:03.305Z,30.57
2023-01-29T04:56:37.223Z,32.13
2023-01-29T04:59:09.251Z,29.53
2023-01-29T05:01:39.724Z,27.23
2023-01-29T05:04:14.204Z,28.75
2023-01-29T05:06:46.630Z,31.00
2023-01-29T05:09:40.847Z,29.13
2023-01-29T05:12:11.935Z,29.13
2023-01-29T05:17:15.675Z,28.53
2023-01-29T05:19:44.089Z,27.27
2023-01-29T05:22:16.614Z,28.10
2023-01-29T05:24:44.878Z,25.50
2023-01-29T05:27:36.013Z,25.63
2023-01-29T05:30:04.942Z,26.48
2023-01-29T05:32:33.141Z,28.00
2023-01-29T05:35:01.242Z,29.10
2023-01-29T05:37:31.031Z,28.57
2023-01-29T05:39:59.017Z,24.40
2023-01-29T05:42:27.035Z,27.10
2023-01-29T05:44:55.222Z,28.23
2023-01-29T05:47:23.262Z,28.60
2023-01-29T05:49:51.247Z,27.03
2023-01-29T05:52:19.251Z,24.47
2023-01-29T05:54:49.125Z,25.67
2023-01-29T05:57:17.127Z,27.83
2023-01-29T05:59:45.117Z,21.50
2023-01-29T06:02:13.298Z,25.20
2023-01-29T06:04:41.466Z,20.77
2023-01-29T06:07:09.637Z,22.83
2023-01-29T06:09:37.680Z,23.17
2023-01-29T06:12:08.112Z,17.03
2023-01-29T06:14:36.186Z,22.17
2023-01-29T06:17:04.942Z,21.60
2023-01-29T06:19:33.025Z,20.07
2023-01-29T06:22:01.103Z,21.40
2023-01-29T06:24:29.235Z,24.93
2023-01-29T06:26:57.232Z,23.00
2023-01-29T06:29:26.645Z,22.13
2023-01-29T06:31:54.675Z,20.57
2023-01-29T06:34:22.711Z,20.70
2023-01-29T06:36:50.722Z,20.63
2023-01-29T06:39:19.210Z,24.47
2023-01-29T06:41:47.404Z,19.30
2023-01-29T06:44:15.419Z,19.77
2023-01-29T06:46:44.783Z,19.87
2023-01-29T06:49:12.898Z,20.57
2023-01-29T06:51:40.988Z,17.93
2023-01-29T06:54:10.429Z,19.13
2023-01-29T06:56:38.473Z,19.47
2023-01-29T06:59:06.512Z,16.97
2023-01-29T07:01:36.432Z,15.83
2023-01-29T07:04:06.389Z,16.90
2023-01-29T07:06:34.919Z,16.30
2023-01-29T07:09:03.550Z,13.93
2023-01-29T07:11:31.956Z,15.93
2023-01-29T07:13:59.942Z,15.67
2023-01-29T07:16:53.656Z,14.83
2023-01-29T07:19:23.949Z,16.87
2023-01-29T07:21:52.039Z,15.57
2023-01-29T07:24:20.259Z,14.13
2023-01-29T07:26:48.385Z,12.97
2023-01-29T07:29:16.344Z,16.33
2023-01-29T07:35:52.772Z,13.47
2023-01-29T07:38:21.361Z,12.80
2023-01-29T07:40:50.460Z,12.57
2023-01-29T07:43:18.445Z,14.30
2023-01-29T07:45:46.497Z,12.93
2023-01-29T07:48:14.715Z,11.80
2023-01-29T07:50:44.048Z,9.03
2023-01-29T07:53:15.961Z,11.10
2023-01-29T07:55:46.129Z,11.60
2023-01-29T07:58:14.393Z,11.40
2023-01-29T08:00:42.663Z,11.20
2023-01-29T08:03:12.890Z,11.83
2023-01-29T08:05:42.440Z,13.33
2023-01-29T08:08:10.878Z,10.57
2023-01-29T08:10:41.659Z,10.83
2023-01-29T08:13:09.926Z,12.65
2023-01-29T08:15:39.359Z,11.33
2023-01-29T08:18:07.895Z,14.80
2023-01-29T08:20:35.841Z,13.13
2023-01-29T08:23:06.001Z,12.60
2023-01-29T08:25:34.980Z,15.52
2023-01-29T08:28:05.220Z,14.63
2023-01-29T08:30:34.858Z,18.33
2023-01-29T08:33:04.309Z,17.33
2023-01-29T08:35:32.352Z,13.03
2023-01-29T08:38:02.149Z,15.30
2023-01-29T08:40:32.813Z,15.43
2023-01-29T08:43:02.535Z,13.73
2023-01-29T08:45:35.353Z,15.32
2023-01-29T08:48:03.726Z,17.10
2023-01-29T08:50:32.444Z,17.53
2023-01-29T08:53:01.491Z,17.27
2023-01-29T08:55:30.489Z,15.87
2023-01-29T08:57:58.536Z,14.47
2023-01-29T09:00:26.836Z,17.00
2023-01-29T09:02:56.199Z,14.60
2023-01-29T09:05:24.266Z,17.80
2023-01-29T09:07:54.219Z,14.03
2023-01-29T09:10:22.466Z,12.77
2023-01-29T09:12:50.442Z,16.43
2023-01-29T09:15:18.942Z,14.47
2023-01-29T09:17:47.257Z,16.00
2023-01-29T09:20:17.137Z,20.47
2023-01-29T09:22:45.629Z,15.83
2023-01-29T09:25:14.741Z,13.33
2023-01-29T09:27:43.247Z,14.63
2023-01-29T09:30:12.716Z,16.57
2023-01-29T09:32:56.029Z,14.97
2023-01-29T09:35:27.001Z,17.07
2023-01-29T09:37:55.121Z,13.43
2023-01-29T09:40:27.738Z,14.40
2023-01-29T09:43:02.891Z,15.83
2023-01-29T09:45:31.649Z,17.13
2023-01-29T09:48:01.713Z,16.33
2023-01-29T09:50:40.868Z,15.90
2023-01-29T09:53:19.004Z,12.10
2023-01-29T09:55:51.987Z,13.70
2023-01-29T09:58:26.503Z,11.67
2023-01-29T10:01:01.174Z,13.30
2023-01-29T10:03:44.953Z,11.83
2023-01-29T10:06:26.652Z,12.13
2023-01-29T10:09:18.683Z,17.17
2023-01-29T10:11:56.313Z,16.20
2023-01-29T10:14:37.770Z,14.60
2023-01-29T10:17:22.432Z,15.23
2023-01-29T10:20:11.328Z,17.17
2023-01-29T10:23:05.738Z,13.67
2023-01-29T10:25:37.960Z,17.40
2023-01-29T10:28:17.116Z,16.73
2023-01-29T10:30:49.716Z,17.00
2023-01-29T10:33:24.740Z,14.97
2023-01-29T10:35:56.909Z,14.93
2023-01-29T10:38:36.277Z,15.60
2023-01-29T10:41:18.021Z,15.47
2023-01-29T10:43:55.977Z,16.17
2023-01-29T10:46:34.955Z,17.50
2023-01-29T10:49:18.792Z,15.87
2023-01-29T10:52:03.362Z,17.80
2023-01-29T10:54:55.926Z,14.53
2023-01-29T10:57:43.327Z,18.23
2023-01-29T11:00:18.505Z,13.00
2023-01-29T11:02:48.707Z,19.67
2023-01-29T11:05:31.870Z,15.23
2023-01-29T11:08:06.374Z,19.93
2023-01-29T11:10:42.826Z,15.87
2023-01-29T11:13:15.428Z,17.90
2023-01-29T11:15:43.450Z,15.73
2023-01-29T11:18:15.356Z,15.67
2023-01-29T11:20:45.046Z,12.77
2023-01-29T11:23:28.049Z,14.43
2023-01-29T11:25:59.171Z,14.03
2023-01-29T11:31:05.415Z,13.67
2023-01-29T11:33:33.543Z,16.87
2023-01-29T11:36:21.049Z,16.33
2023-01-29T11:39:05.856Z,12.30
2023-01-29T11:41:44.791Z,10.30
2023-01-29T11:44:28.343Z,10.70
2023-01-29T11:46:57.638Z,11.97
2023-01-29T11:49:34.085Z,12.70
2023-01-29T11:52:04.683Z,12.33
2023-01-29T11:54:38.655Z,12.73
2023-01-29T11:57:24.104Z,14.77
2023-01-29T11:59:54.572Z,11.30
2023-01-29T12:02:30.703Z,11.65
2023-01-29T12:05:03.534Z,11.70
2023-01-29T12:07:32.638Z,11.23
2023-01-29T12:10:01.416Z,10.23
2023-01-29T12:12:34.126Z,9.70
2023-01-29T12:15:20.652Z,10.37
2023-01-29T12:17:54.869Z,12.30
2023-01-29T12:20:29.221Z,11.30
2023-01-29T12:23:04.337Z,12.37
2023-01-29T12:25:43.504Z,8.33
2023-01-29T12:28:23.890Z,9.40
2023-01-29T12:31:03.435Z,6.82
2023-01-29T12:33:40.990Z,10.40
2023-01-29T12:36:14.757Z,9.30
2023-01-29T12:38:45.865Z,5.90
2023-01-29T12:43:57.534Z,7.53
2023-01-29T12:46:29.879Z,9.43
2023-01-29T12:49:02.659Z,8.20
2023-01-29T12:51:35.831Z,7.07
2023-01-29T12:54:08.851Z,6.77
2023-01-29T12:56:41.120Z,6.03
2023-01-29T12:59:19.983Z,7.87
2023-01-29T13:01:53.480Z,6.20
2023-01-29T13:04:33.493Z,26.43
2023-01-29T13:07:12.281Z,37.57
2023-01-29T13:09:45.502Z,15.60
2023-01-29T13:12:17.479Z,7.83
2023-01-29T13:14:52.859Z,9.27
2023-01-29T13:17:31.554Z,11.00
2023-01-29T13:20:04.435Z,7.50
2023-01-29T13:22:37.229Z,9.60
2023-01-29T13:25:06.364Z,32.53
2023-01-29T13:27:36.296Z,8.97
2023-01-29T13:30:06.864Z,6.47
2023-01-29T13:32:37.451Z,105.72
2023-01-29T13:35:13.947Z,62.38
2023-01-29T13:37:47.420Z,8.90
2023-01-29T13:40:23.136Z,10.13
2023-01-29T13:42:53.187Z,10.37
2023-01-29T13:45:26.453Z,7.87
2023-01-29T13:47:55.492Z,9.20
2023-01-29T13:50:31.053Z,10.53
2023-01-29T13:53:02.189Z,9.40
2023-01-29T13:55:33.393Z,9.20
2023-01-29T14:00:59.256Z,7.73
2023-01-29T14:04:05.551Z,7.70
2023-01-29T14:06:47.438Z,7.13
2023-01-29T14:10:00.521Z,5.73
2023-01-29T14:12:40.987Z,5.90
2023-01-29T14:15:31.472Z,5.70
2023-01-29T14:18:19.652Z,5.22
2023-01-29T14:20:58.547Z,12.93
2023-01-29T14:23:40.410Z,4.93
2023-01-29T14:26:22.576Z,6.13
2023-01-29T14:28:57.593Z,11.10
2023-01-29T14:31:42.658Z,9.43
2023-01-29T14:34:22.092Z,4.60
2023-01-29T14:36:55.627Z,4.90
2023-01-29T14:39:31.594Z,9.20
2023-01-29T14:42:00.704Z,9.47
2023-01-29T14:44:48.942Z,4.73
2023-01-29T14:47:21.381Z,4.03
2023-01-29T14:49:53.911Z,5.70
2023-01-29T14:52:27.952Z,4.90
2023-01-29T14:55:00.970Z,4.17
2023-01-29T14:57:31.526Z,4.87
2023-01-29T15:00:02.172Z,3.38
2023-01-29T15:02:38.991Z,3.57
2023-01-29T15:05:17.932Z,3.80
2023-01-29T15:07:54.741Z,5.30
2023-01-29T15:10:28.471Z,3.97
2023-01-29T15:13:01.646Z,3.90
2023-01-29T15:15:37.613Z,5.50
2023-01-29T15:18:09.481Z,3.60
2023-01-29T15:20:40.641Z,6.93
2023-01-29T15:23:26.917Z,12.67
2023-01-29T15:25:57.660Z,6.63
2023-01-29T15:28:27.831Z,4.50
2023-01-29T15:30:59.158Z,6.82
2023-01-29T15:33:28.113Z,5.17
2023-01-29T15:36:07.319Z,14.90
2023-01-29T15:38:35.747Z,11.57
2023-01-29T15:41:16.058Z,4.67
2023-01-29T15:43:46.436Z,6.53
2023-01-29T15:46:21.842Z,4.38
2023-01-29T15:48:51.286Z,4.07
2023-01-29T15:51:23.423Z,3.60
2023-01-29T15:53:55.013Z,4.93
2023-01-29T15:56:27.889Z,3.87
2023-01-29T15:58:58.507Z,6.10
2023-01-29T16:01:27.650Z,5.63
2023-01-29T16:03:59.295Z,5.60
2023-01-29T16:06:36.805Z,4.23
2023-01-29T16:09:06.863Z,6.73
2023-01-29T16:11:36.287Z,4.53
2023-01-29T16:14:06.251Z,4.53
2023-01-29T16:16:34.907Z,5.57
2023-01-29T16:19:14.483Z,11.33
2023-01-29T16:21:46.024Z,13.27
2023-01-29T16:24:22.417Z,5.43
2023-01-29T16:26:52.734Z,4.70
2023-01-29T16:29:23.596Z,4.78
2023-01-29T16:32:00.395Z,6.57
2023-01-29T16:34:32.723Z,6.27
2023-01-29T16:37:04.161Z,6.50
2023-01-29T16:39:35.509Z,5.77
2023-01-29T16:42:27.988Z,6.10
2023-01-29T16:44:58.984Z,8.67
2023-01-29T16:50:02.227Z,10.50
2023-01-29T16:52:33.837Z,8.18
2023-01-29T16:55:16.402Z,11.87
2023-01-29T16:57:49.008Z,8.00
2023-01-29T17:00:23.411Z,6.57
2023-01-29T17:02:54.389Z,6.00
2023-01-29T17:05:27.299Z,6.90
2023-01-29T17:07:59.596Z,13.83
2023-01-29T17:10:30.321Z,18.97
2023-01-29T17:13:03.932Z,11.55
2023-01-29T17:15:36.439Z,8.93
2023-01-29T17:18:05.245Z,9.27
2023-01-29T17:20:33.689Z,7.43
2023-01-29T17:23:03.147Z,7.27
2023-01-29T17:25:42.652Z,5.97
2023-01-29T17:28:14.053Z,6.13
2023-01-29T17:30:44.651Z,7.90
2023-01-29T17:33:14.777Z,8.63
2023-01-29T17:35:44.181Z,6.90
2023-01-29T17:38:25.591Z,5.03
2023-01-29T17:40:59.105Z,5.63
2023-01-29T17:43:27.199Z,5.33
2023-01-29T17:45:55.696Z,4.67
2023-01-29T17:48:26.793Z,4.33
2023-01-29T17:53:30.557Z,20.83
2023-01-29T17:56:04.738Z,22.88
2023-01-29T17:58:32.775Z,9.23
2023-01-29T18:01:01.230Z,4.53
2023-01-29T18:03:30.131Z,5.47
2023-01-29T18:05:58.106Z,8.53
2023-01-29T18:08:31.187Z,6.13
2023-01-29T18:10:59.626Z,6.60
2023-01-29T18:13:27.880Z,6.60
2023-01-29T18:15:56.379Z,5.57
2023-01-29T18:18:25.228Z,7.00
2023-01-29T18:20:53.402Z,5.20
2023-01-29T18:23:22.107Z,7.80
2023-01-29T18:25:52.777Z,7.63
2023-01-29T18:28:20.933Z,7.32
2023-01-29T18:30:52.918Z,6.57
2023-01-29T18:33:21.015Z,4.57
2023-01-29T18:35:49.209Z,4.63
2023-01-29T18:38:17.933Z,14.97
2023-01-29T18:40:45.908Z,20.83
2023-01-29T18:43:16.309Z,46.90
2023-01-29T18:45:44.379Z,60.13
2023-01-29T18:48:12.487Z,41.57
2023-01-29T18:50:45.404Z,26.37
2023-01-29T18:53:13.473Z,25.80
2023-01-29T18:55:41.441Z,8.17
2023-01-29T18:58:33.484Z,5.27
2023-01-29T19:00:59.196Z,6.67
2023-01-29T19:03:27.283Z,5.53
2023-01-29T19:05:55.291Z,5.67
2023-01-29T19:08:23.585Z,14.53
2023-01-29T19:10:51.589Z,11.47
2023-01-29T19:13:19.548Z,5.83
2023-01-29T19:15:49.114Z,6.97
2023-01-29T19:18:18.661Z,5.07
2023-01-29T19:20:46.670Z,4.27
2023-01-29T19:23:14.761Z,5.93
2023-01-29T19:25:42.880Z,6.30
2023-01-29T19:28:10.984Z,4.47
2023-01-29T19:30:39.379Z,3.10
2023-01-29T19:33:07.368Z,4.10
2023-01-29T19:36:49.299Z,5.63
2023-01-29T19:39:18.831Z,7.03
2023-01-29T19:42:01.748Z,12.00
2023-01-29T19:44:29.816Z,13.00
2023-01-29T19:46:57.955Z,4.50
2023-01-29T19:49:26.793Z,4.40
2023-01-29T19:51:56.093Z,6.60
2023-01-29T19:54:27.478Z,7.87
2023-01-29T19:56:55.730Z,5.47
2023-01-29T19:59:23.904Z,6.83
2023-01-29T20:01:51.967Z,5.50
2023-01-29T20:04:20.397Z,5.77
2023-01-29T20:06:48.574Z,9.40
2023-01-29T20:09:17.722Z,8.30
2023-01-29T20:11:47.125Z,5.10
2023-01-29T20:14:45.681Z,5.53
2023-01-29T20:17:13.689Z,6.10
2023-01-29T20:19:41.738Z,9.73
2023-01-29T20:22:09.764Z,7.00
2023-01-29T20:24:42.194Z,6.90
2023-01-29T20:27:12.445Z,8.63
2023-01-29T20:29:41.123Z,6.15
2023-01-29T20:32:09.224Z,6.43
2023-01-29T20:34:37.505Z,7.73
2023-01-29T20:37:05.620Z,8.63
2023-01-29T20:39:33.662Z,12.93
2023-01-29T20:42:01.742Z,7.63
2023-01-29T20:44:31.148Z,8.13
2023-01-29T20:47:01.763Z,11.13
2023-01-29T20:49:30.176Z,9.80
2023-01-29T20:51:58.225Z,17.73
2023-01-29T20:54:26.447Z,11.83
2023-01-29T20:56:54.705Z,13.77
2023-01-29T20:59:24.185Z,10.40
2023-01-29T21:01:53.684Z,8.83
2023-01-29T21:04:21.823Z,7.70
2023-01-29T21:06:49.845Z,14.57
2023-01-29T21:09:17.926Z,13.07
2023-01-29T21:11:46.004Z,13.30
2023-01-29T21:14:14.195Z,14.30
2023-01-29T21:16:42.273Z,17.80
2023-01-29T21:19:14.506Z,9.97
2023-01-29T21:21:42.582Z,15.07
2023-01-29T21:24:11.819Z,20.90
2023-01-29T21:26:40.174Z,16.87
2023-01-29T21:29:08.223Z,21.40
2023-01-29T21:32:28.117Z,15.00
2023-01-29T21:34:57.510Z,16.00
2023-01-29T21:37:25.670Z,14.13
2023-01-29T21:39:53.755Z,17.37
2023-01-29T21:42:39.477Z,9.50
2023-01-29T21:45:08.984Z,20.23
2023-01-29T21:47:37.047Z,13.33
2023-01-29T21:50:07.545Z,12.87
2023-01-29T21:52:35.560Z,13.10
2023-01-29T21:55:03.871Z,8.27
2023-01-29T21:57:31.911Z,8.13
2023-01-29T22:00:00.170Z,8.37
2023-01-29T22:02:30.893Z,9.70
2023-01-29T22:05:17.727Z,10.35
2023-01-29T22:07:48.855Z,10.57
2023-01-29T22:10:18.391Z,13.60
2023-01-29T22:12:49.428Z,10.93
2023-01-29T22:15:17.654Z,8.45
2023-01-29T22:17:45.637Z,7.83
2023-01-29T22:20:18.462Z,8.43
2023-01-29T22:22:48.012Z,5.63
2023-01-29T22:25:20.102Z,7.63
2023-01-29T22:27:48.795Z,9.03
2023-01-29T22:30:17.555Z,7.13
2023-01-29T22:32:45.956Z,5.50
2023-01-29T22:35:13.930Z,4.93
2023-01-29T22:37:42.124Z,6.37
2023-01-29T22:40:12.942Z,9.40
2023-01-29T22:42:41.345Z,9.40
2023-01-29T22:46:24.638Z,7.17
2023-01-29T22:48:52.741Z,6.07
2023-01-29T22:51:20.901Z,7.47
2023-01-29T22:53:51.233Z,9.57
2023-01-29T22:56:25.226Z,7.93
2023-01-29T22:58:53.872Z,5.30
2023-01-29T23:01:23.469Z,7.63
2023-01-29T23:03:51.628Z,7.73
2023-01-29T23:06:21.735Z,5.67
2023-01-29T23:08:50.510Z,8.47
2023-01-29T23:11:21.636Z,6.47
2023-01-29T23:16:19.831Z,6.57
2023-01-29T23:18:51.047Z,8.97
2023-01-29T23:21:19.495Z,4.30
2023-01-29T23:23:49.204Z,6.67
2023-01-29T23:26:31.114Z,6.00
2023-01-29T23:29:01.267Z,8.67
2023-01-29T23:31:55.187Z,7.47
2023-01-29T23:34:23.511Z,4.80
2023-01-29T23:36:51.606Z,8.53
2023-01-29T23:39:20.585Z,6.70
2023-01-29T23:41:49.970Z,7.57
2023-01-29T23:44:20.313Z,11.97
2023-01-29T23:46:48.452Z,7.30
2023-01-29T23:49:16.577Z,8.87
2023-01-29T23:51:45.748Z,7.90
2023-01-29T23:54:14.350Z,11.20
2023-01-29T23:56:42.399Z,8.60
2023-01-29T23:59:11.706Z,7.53
